Terminal Aerodrome Forecast
Issued by NWS Omaha/Valley, NE

Home | Current Version | Previous Version | Text Only | Print | Product List | Glossary On
Versions: 1 2 3 4 5 6 7 8 9 10 11 12 13 14 15 16 17 18 19 20 21 22 23 24 25 26 27 28 29 30 31 32 33 34 35 36 37
000
FTUS43 KOAX 021720
TAFOFK
TAF
KOFK 021720Z 0218/0318 23006KT P6SM SKC
     FM030200 16008KT P6SM BKN150
      TEMPO 0311/0315 17010KT 4SM BR BKN007
     FM031500 18014G20KT P6SM BKN035=

USA.gov is the U.S. government's official web portal to all federal, state and local government web resources and services.